createdAt,value
2019-02-11T00:02:09.536Z,98205.67
2019-02-11T00:04:37.176Z,98192.06
2019-02-11T00:07:04.812Z,98195.50
2019-02-11T00:09:32.461Z,98198.46
2019-02-11T00:12:00.116Z,98207.84
2019-02-11T00:14:27.767Z,98207.06
2019-02-11T00:16:55.397Z,98204.45
2019-02-11T00:19:23.053Z,98210.17
2019-02-11T00:21:50.698Z,98217.86
2019-02-11T00:24:18.358Z,98210.98
2019-02-11T00:26:46.002Z,98225.58
2019-02-11T00:29:13.650Z,98221.23
2019-02-11T00:31:41.294Z,98213.53
2019-02-11T00:34:08.933Z,98211.39
2019-02-11T00:36:36.573Z,98202.73
2019-02-11T00:39:05.132Z,98212.54
2019-02-11T00:41:32.864Z,98224.95
2019-02-11T00:44:00.500Z,98225.82
2019-02-11T00:46:28.141Z,98223.38
2019-02-11T00:48:55.783Z,98237.06
2019-02-11T00:51:23.512Z,98239.05
2019-02-11T00:53:51.163Z,98231.33
2019-02-11T00:56:18.813Z,98233.02
2019-02-11T00:58:46.459Z,98232.96
2019-02-11T01:01:14.112Z,98253.63
2019-02-11T01:03:41.752Z,98255.33
2019-02-11T01:06:09.400Z,98250.22
2019-02-11T01:08:37.038Z,98259.16
2019-02-11T01:11:04.680Z,98268.58
2019-02-11T01:13:32.314Z,98289.54
2019-02-11T01:15:59.970Z,98305.77
2019-02-11T01:18:27.615Z,98274.45
2019-02-11T01:20:55.270Z,98290.62
2019-02-11T01:23:22.910Z,98291.77
2019-02-11T01:25:50.566Z,98298.58
2019-02-11T01:28:18.202Z,98295.20
2019-02-11T01:30:45.848Z,98290.36
2019-02-11T01:33:13.485Z,98286.17
2019-02-11T01:35:41.134Z,98283.94
2019-02-11T01:38:08.776Z,98290.72
2019-02-11T01:40:36.425Z,98290.65
2019-02-11T01:43:04.061Z,98283.27
2019-02-11T01:45:31.700Z,98284.48
2019-02-11T01:47:59.341Z,98279.63
2019-02-11T01:50:26.987Z,98273.18
2019-02-11T01:52:54.629Z,98268.81
2019-02-11T01:55:22.273Z,98292.30
2019-02-11T01:57:49.924Z,98285.25
2019-02-11T02:00:17.575Z,98298.91
2019-02-11T02:02:45.209Z,98299.33
2019-02-11T02:05:12.867Z,98303.14
2019-02-11T02:07:40.506Z,98308.16
2019-02-11T02:10:08.203Z,98313.09
2019-02-11T02:12:35.839Z,98322.41
2019-02-11T02:15:03.485Z,98343.30
2019-02-11T02:17:31.134Z,98350.81
2019-02-11T02:19:58.770Z,98351.58
2019-02-11T02:22:26.422Z,98359.36
2019-02-11T02:24:54.055Z,98367.41
2019-02-11T02:27:21.710Z,98374.03
2019-02-11T02:29:49.355Z,98376.55
2019-02-11T02:32:16.993Z,98375.63
2019-02-11T02:34:44.631Z,98367.80
2019-02-11T02:37:12.268Z,98371.06
2019-02-11T02:39:39.908Z,98378.20
2019-02-11T02:42:07.564Z,98374.34
2019-02-11T02:44:35.205Z,98382.69
2019-02-11T02:47:02.855Z,98375.31
2019-02-11T02:49:30.495Z,98383.45
2019-02-11T02:51:58.140Z,98391.04
2019-02-11T02:54:25.776Z,98389.08
2019-02-11T02:56:53.422Z,98399.82
2019-02-11T02:59:21.059Z,98388.89
2019-02-11T03:01:48.706Z,98411.20
2019-02-11T03:04:16.357Z,98407.64
2019-02-11T03:06:44.006Z,98416.19
2019-02-11T03:09:11.632Z,98423.29
2019-02-11T03:11:39.272Z,98418.40
2019-02-11T03:14:06.912Z,98435.14
2019-02-11T03:16:34.552Z,98443.66
2019-02-11T03:19:02.196Z,98443.53
2019-02-11T03:21:29.848Z,98445.51
2019-02-11T03:23:57.482Z,98452.50
2019-02-11T03:26:25.129Z,98464.10
2019-02-11T03:28:52.772Z,98465.36
2019-02-11T03:31:20.424Z,98490.47
2019-02-11T03:33:48.142Z,98485.20
2019-02-11T03:36:15.791Z,98497.99
2019-02-11T03:38:43.422Z,98506.09
2019-02-11T03:41:11.073Z,98511.81
2019-02-11T03:43:38.714Z,98519.27
2019-02-11T03:46:06.347Z,98531.09
2019-02-11T03:48:34.008Z,98526.12
2019-02-11T03:51:01.658Z,98543.48
2019-02-11T03:53:29.303Z,98551.30
2019-02-11T03:55:57.008Z,98564.93
2019-02-11T03:58:24.693Z,98574.96
2019-02-11T04:00:52.339Z,98576.27
2019-02-11T04:03:19.981Z,98586.89
2019-02-11T04:05:47.626Z,98590.31
2019-02-11T04:08:15.269Z,98606.41
2019-02-11T04:10:42.906Z,98623.16
2019-02-11T04:13:10.546Z,98626.81
2019-02-11T04:15:38.376Z,98634.25
2019-02-11T04:18:06.008Z,98639.94
2019-02-11T04:20:33.654Z,98630.53
2019-02-11T04:23:01.308Z,98634.27
2019-02-11T04:25:28.950Z,98634.30
2019-02-11T04:27:56.592Z,98643.36
2019-02-11T04:30:24.228Z,98653.45
2019-02-11T04:32:51.962Z,98654.15
2019-02-11T04:35:19.686Z,98666.70
2019-02-11T04:37:47.329Z,98656.54
2019-02-11T04:40:14.975Z,98681.70
2019-02-11T04:42:42.621Z,98672.41
2019-02-11T04:45:10.272Z,98680.14
2019-02-11T04:47:37.972Z,98697.02
2019-02-11T04:50:05.671Z,98697.69
2019-02-11T04:52:33.317Z,98705.99
2019-02-11T04:55:00.957Z,98708.95
2019-02-11T04:57:28.606Z,98725.14
2019-02-11T04:59:56.244Z,98733.13
2019-02-11T05:02:23.902Z,98746.06
2019-02-11T05:04:51.540Z,98748.47
2019-02-11T05:07:19.182Z,98759.55
2019-02-11T05:09:46.823Z,98767.02
2019-02-11T05:12:14.470Z,98770.30
2019-02-11T05:14:43.865Z,98776.61
2019-02-11T05:17:11.466Z,98780.80
2019-02-11T05:19:39.118Z,98774.40
2019-02-11T05:22:06.797Z,98783.41
2019-02-11T05:24:34.428Z,98783.73
2019-02-11T05:27:02.094Z,98779.95
2019-02-11T05:29:29.746Z,98788.09
2019-02-11T05:31:57.387Z,98810.34
2019-02-11T05:34:25.050Z,98805.05
2019-02-11T05:36:52.872Z,98815.88
2019-02-11T05:39:20.505Z,98821.11
2019-02-11T05:41:48.152Z,98828.23
2019-02-11T05:44:15.794Z,98825.04
2019-02-11T05:46:43.444Z,98842.31
2019-02-11T05:49:11.094Z,98841.44
2019-02-11T05:51:38.732Z,98838.22
2019-02-11T05:54:06.402Z,98843.74
2019-02-11T05:56:34.054Z,98862.05
2019-02-11T05:59:01.690Z,98862.77
2019-02-11T06:01:29.331Z,98869.73
2019-02-11T06:03:56.988Z,98877.62
2019-02-11T06:06:24.625Z,98881.14
2019-02-11T06:08:52.265Z,98883.95
2019-02-11T06:11:19.916Z,98890.75
2019-02-11T06:13:47.571Z,98905.45
2019-02-11T06:16:15.205Z,98911.75
2019-02-11T06:18:42.854Z,98906.33
2019-02-11T06:21:10.499Z,98926.23
2019-02-11T06:23:38.137Z,98935.44
2019-02-11T06:26:05.785Z,98942.86
2019-02-11T06:28:33.433Z,98944.86
2019-02-11T06:31:01.211Z,98949.69
2019-02-11T06:33:28.856Z,98957.52
2019-02-11T06:35:56.510Z,98960.92
2019-02-11T06:38:24.165Z,98965.51
2019-02-11T06:40:51.802Z,98976.76
2019-02-11T06:43:19.455Z,98983.78
2019-02-11T06:45:47.100Z,98989.65
2019-02-11T06:48:14.741Z,98992.92
2019-02-11T06:50:42.380Z,98996.05
2019-02-11T06:53:10.025Z,99001.27
2019-02-11T06:55:37.666Z,99003.14
2019-02-11T06:58:05.329Z,99016.41
2019-02-11T07:00:32.974Z,99022.23
2019-02-11T07:03:00.638Z,99024.45
2019-02-11T07:05:28.273Z,99035.59
2019-02-11T07:07:55.916Z,99022.02
2019-02-11T07:10:23.558Z,99031.98
2019-02-11T07:12:51.292Z,99040.64
2019-02-11T07:15:22.069Z,99048.34
2019-02-11T07:17:48.304Z,99053.26
2019-02-11T07:20:15.942Z,99041.78
2019-02-11T07:22:43.589Z,99035.69
2019-02-11T07:25:11.229Z,99064.77
2019-02-11T07:27:38.910Z,99062.48
2019-02-11T07:30:06.605Z,99064.97
2019-02-11T07:32:34.245Z,99073.89
2019-02-11T07:35:01.903Z,99081.27
2019-02-11T07:37:29.546Z,99092.41
2019-02-11T07:39:57.197Z,99085.84
2019-02-11T07:42:46.777Z,99091.97
2019-02-11T07:45:29.894Z,99097.52
2019-02-11T07:47:52.110Z,99092.64
2019-02-11T07:50:19.756Z,99107.69
2019-02-11T07:52:47.427Z,99111.46
2019-02-11T07:55:15.057Z,99116.58
2019-02-11T07:57:42.710Z,99113.50
2019-02-11T08:00:10.442Z,99106.20
2019-02-11T08:02:38.092Z,99121.14
2019-02-11T08:05:05.731Z,99127.30
2019-02-11T08:07:33.387Z,99130.66
2019-02-11T08:10:01.054Z,99140.52
2019-02-11T08:12:28.695Z,99143.75
2019-02-11T08:14:56.341Z,99149.80
2019-02-11T08:17:23.981Z,99165.13
2019-02-11T08:19:51.627Z,99154.97
2019-02-11T08:22:19.257Z,99169.63
2019-02-11T08:24:46.901Z,99176.41
2019-02-11T08:27:14.540Z,99175.06
2019-02-11T08:29:42.209Z,99184.97
2019-02-11T08:32:09.917Z,99194.66
2019-02-11T08:34:37.564Z,99196.34
2019-02-11T08:37:05.203Z,99195.38
2019-02-11T08:39:32.866Z,99202.69
2019-02-11T08:42:00.504Z,99217.40
2019-02-11T08:44:28.158Z,99222.92
2019-02-11T08:46:55.798Z,99213.45
2019-02-11T08:49:23.440Z,99215.64
2019-02-11T08:51:51.094Z,99212.74
2019-02-11T08:54:18.744Z,99220.16
2019-02-11T08:56:46.398Z,99214.78
2019-02-11T08:59:14.052Z,99219.91
2019-02-11T09:01:41.697Z,99224.14
2019-02-11T09:04:09.334Z,99230.39
2019-02-11T09:06:36.972Z,99227.36
2019-02-11T09:09:05.581Z,99244.80
2019-02-11T09:11:33.223Z,99244.21
2019-02-11T09:14:00.874Z,99250.52
2019-02-11T09:16:28.507Z,99259.72
2019-02-11T09:18:56.153Z,99267.72
2019-02-11T09:21:23.794Z,99259.56
2019-02-11T09:23:51.432Z,99277.70
2019-02-11T09:26:19.167Z,99278.64
2019-02-11T09:28:46.804Z,99291.86
2019-02-11T09:31:14.455Z,99298.53
2019-02-11T09:33:42.089Z,99296.91
2019-02-11T09:36:09.733Z,99304.03
2019-02-11T09:38:37.421Z,99308.13
2019-02-11T09:41:05.058Z,99317.61
2019-02-11T09:43:32.696Z,99303.59
2019-02-11T09:46:03.884Z,99315.20
2019-02-11T09:48:29.690Z,99323.25
2019-02-11T09:50:57.342Z,99322.53
2019-02-11T09:53:24.973Z,99328.32
2019-02-11T09:55:52.624Z,99331.04
2019-02-11T09:58:20.280Z,99323.18
2019-02-11T10:00:47.922Z,99329.66
2019-02-11T10:03:15.559Z,99341.95
2019-02-11T10:05:43.214Z,99333.28
2019-02-11T10:08:10.856Z,99350.27
2019-02-11T10:10:38.503Z,99350.30
2019-02-11T10:13:06.148Z,99363.03
2019-02-11T10:15:33.796Z,99351.83
2019-02-11T10:18:01.426Z,99362.56
2019-02-11T10:20:29.064Z,99381.66
2019-02-11T10:22:56.708Z,99370.42
2019-02-11T10:25:24.359Z,99378.57
2019-02-11T10:27:51.997Z,99381.29
2019-02-11T10:30:19.645Z,99385.20
2019-02-11T10:32:47.294Z,99381.61
2019-02-11T10:35:14.945Z,99386.40
2019-02-11T10:37:42.592Z,99393.31
2019-02-11T10:40:10.241Z,99409.45
2019-02-11T10:42:37.873Z,99405.95
2019-02-11T10:45:05.516Z,99407.47
2019-02-11T10:47:33.154Z,99408.63
2019-02-11T10:50:00.819Z,99420.00
2019-02-11T10:52:28.461Z,99419.24
2019-02-11T10:54:56.128Z,99418.42
2019-02-11T10:57:23.770Z,99427.53
2019-02-11T10:59:51.414Z,99422.28
2019-02-11T11:02:19.054Z,99413.61
2019-02-11T11:04:46.695Z,99424.20
2019-02-11T11:07:14.333Z,99403.85
2019-02-11T11:09:42.014Z,99430.25
2019-02-11T11:12:09.662Z,99436.70
2019-02-11T11:14:37.314Z,99431.62
2019-02-11T11:17:04.956Z,99444.29
2019-02-11T11:19:32.597Z,99440.36
2019-02-11T11:22:00.239Z,99446.55
2019-02-11T11:24:27.897Z,99454.98
2019-02-11T11:26:55.537Z,99448.70
2019-02-11T11:29:23.225Z,99451.01
2019-02-11T11:31:50.905Z,99454.89
2019-02-11T11:34:18.545Z,99454.91
2019-02-11T11:36:46.195Z,99458.28
2019-02-11T11:39:19.185Z,99466.45
2019-02-11T11:41:46.834Z,99469.04
2019-02-11T11:44:14.483Z,99470.14
2019-02-11T11:46:47.108Z,99470.64
2019-02-11T11:49:11.476Z,99473.05
2019-02-11T11:51:40.628Z,99481.45
2019-02-11T11:54:08.447Z,99488.37
2019-02-11T11:56:36.090Z,99479.95
2019-02-11T11:59:03.737Z,99497.10
2019-02-11T12:01:31.400Z,99502.33
2019-02-11T12:03:59.112Z,99500.17
2019-02-11T12:06:26.759Z,99504.98
2019-02-11T12:08:54.395Z,99512.69
2019-02-11T12:11:22.044Z,99520.31
2019-02-11T12:13:49.767Z,99508.77
2019-02-11T12:16:17.405Z,99521.84
2019-02-11T12:18:45.193Z,99552.69
2019-02-11T12:21:12.880Z,99555.87
2019-02-11T12:23:40.515Z,99565.87
2019-02-11T12:26:08.162Z,99569.80
2019-02-11T12:28:35.797Z,99574.37
2019-02-11T12:31:03.437Z,99613.79
2019-02-11T12:33:31.108Z,99601.34
2019-02-11T12:35:58.812Z,99618.66
2019-02-11T12:38:26.480Z,99618.66
2019-02-11T12:40:54.193Z,99624.19
2019-02-11T12:43:21.827Z,99624.92
2019-02-11T12:45:49.485Z,99611.04
2019-02-11T12:48:17.138Z,99614.11
2019-02-11T12:50:44.870Z,99606.72
2019-02-11T12:53:12.584Z,99618.09
2019-02-11T12:55:40.243Z,99623.23
2019-02-11T12:58:07.881Z,99627.96
2019-02-11T13:00:35.552Z,99643.11
2019-02-11T13:03:03.534Z,99625.27
2019-02-11T13:05:44.290Z,99643.34
2019-02-11T13:08:00.550Z,99638.36
2019-02-11T13:10:28.285Z,99649.26
2019-02-11T13:12:56.043Z,99653.08
2019-02-11T13:15:56.824Z,99647.77
2019-02-11T13:17:53.117Z,99652.14
2019-02-11T13:20:20.969Z,99663.02
2019-02-11T13:22:48.671Z,99659.83
2019-02-11T13:25:16.438Z,99670.11
2019-02-11T13:27:44.341Z,99653.90
2019-02-11T13:30:12.136Z,99679.17
2019-02-11T13:32:39.922Z,99691.02
2019-02-11T13:35:07.591Z,99702.28
2019-02-11T13:37:35.252Z,99700.52
2019-02-11T13:40:02.898Z,99708.58
2019-02-11T13:42:30.543Z,99712.14
2019-02-11T13:44:58.182Z,99725.34
2019-02-11T13:47:25.841Z,99719.72
2019-02-11T13:49:53.490Z,99722.11
2019-02-11T13:52:21.224Z,99726.39
2019-02-11T13:54:48.944Z,99737.28
2019-02-11T13:57:16.597Z,99735.07
2019-02-11T13:59:44.247Z,99733.94
2019-02-11T14:02:11.970Z,99744.99
2019-02-11T14:04:39.615Z,99736.69
2019-02-11T14:07:07.355Z,99754.56
2019-02-11T14:09:35.063Z,99758.84
2019-02-11T14:12:02.721Z,99767.45
2019-02-11T14:14:30.360Z,99768.16
2019-02-11T14:16:58.007Z,99769.84
2019-02-11T14:19:25.738Z,99772.08
2019-02-11T14:21:53.394Z,99773.02
2019-02-11T14:24:21.039Z,99774.80
2019-02-11T14:26:48.698Z,99774.76
2019-02-11T14:29:16.426Z,99766.98
2019-02-11T14:31:44.068Z,99783.20
2019-02-11T14:34:11.744Z,99778.72
2019-02-11T14:36:42.967Z,99782.33
2019-02-11T14:39:08.805Z,99788.28
2019-02-11T14:41:36.456Z,99784.91
2019-02-11T14:44:04.180Z,99784.51
2019-02-11T14:46:31.831Z,99802.47
2019-02-11T14:48:59.641Z,99803.58
2019-02-11T14:51:27.271Z,99803.21
2019-02-11T14:53:54.918Z,99807.06
2019-02-11T14:56:22.578Z,99815.73
2019-02-11T14:58:50.213Z,99814.27
2019-02-11T15:01:17.870Z,99829.23
2019-02-11T15:03:45.506Z,99835.95
2019-02-11T15:06:13.167Z,99833.37
2019-02-11T15:08:40.800Z,99840.55
2019-02-11T15:11:08.438Z,99845.53
2019-02-11T15:13:36.093Z,99848.80
2019-02-11T15:16:03.812Z,99858.72
2019-02-11T15:18:34.397Z,99868.81
2019-02-11T15:21:00.818Z,99864.95
2019-02-11T15:23:28.482Z,99870.75
2019-02-11T15:25:56.118Z,99875.34
2019-02-11T15:28:23.764Z,99884.63
2019-02-11T15:30:51.431Z,99881.94
2019-02-11T15:33:19.077Z,99893.12
2019-02-11T15:35:46.724Z,99892.41
2019-02-11T15:38:14.372Z,99900.49
2019-02-11T15:40:42.201Z,99903.20
2019-02-11T15:43:09.866Z,99911.70
2019-02-11T15:45:37.513Z,99924.02
2019-02-11T15:48:05.154Z,99935.25
2019-02-11T15:50:32.793Z,99939.85
2019-02-11T15:53:00.461Z,99941.26
2019-02-11T15:55:28.111Z,99953.20
2019-02-11T15:57:55.937Z,99939.78
2019-02-11T16:00:23.581Z,99957.81
2019-02-11T16:02:51.899Z,99970.02
2019-02-11T16:05:19.770Z,99972.98
2019-02-11T16:07:47.426Z,99969.89
2019-02-11T16:10:15.075Z,99981.03
2019-02-11T16:12:42.738Z,99983.11
2019-02-11T16:15:10.379Z,99980.61
2019-02-11T16:17:38.022Z,99984.51
2019-02-11T16:20:05.661Z,99987.68
2019-02-11T16:22:33.312Z,99994.33
2019-02-11T16:25:00.970Z,99998.23
2019-02-11T16:27:28.729Z,100004.44
2019-02-11T16:29:56.465Z,100018.36
2019-02-11T16:32:24.129Z,100044.58
2019-02-11T16:34:51.784Z,100041.21
2019-02-11T16:37:19.429Z,100052.62
2019-02-11T16:39:47.069Z,100067.67
2019-02-11T16:42:14.729Z,100068.45
2019-02-11T16:44:42.377Z,100073.69
2019-02-11T16:47:10.024Z,100083.95
2019-02-11T16:49:37.680Z,100077.45
2019-02-11T16:52:05.339Z,100090.94
2019-02-11T16:54:32.993Z,100094.91
2019-02-11T16:57:00.649Z,100106.38
2019-02-11T16:59:28.311Z,100116.62
2019-02-11T17:01:55.961Z,100120.70
2019-02-11T17:04:23.612Z,100125.73
2019-02-11T17:06:51.267Z,100120.61
2019-02-11T17:09:18.918Z,100126.93
2019-02-11T17:11:46.562Z,100133.13
2019-02-11T17:14:14.211Z,100150.95
2019-02-11T17:16:41.863Z,100152.41
2019-02-11T17:19:09.880Z,100160.28
2019-02-11T17:21:37.653Z,100166.36
2019-02-11T17:24:05.305Z,100184.92
2019-02-11T17:26:32.962Z,100195.41
2019-02-11T17:29:00.611Z,100195.06
2019-02-11T17:31:28.261Z,100206.04
2019-02-11T17:33:55.930Z,100211.90
2019-02-11T17:36:23.578Z,100223.02
2019-02-11T17:38:51.229Z,100222.92
2019-02-11T17:41:18.873Z,100224.93
2019-02-11T17:43:46.521Z,100238.02
2019-02-11T17:46:14.175Z,100249.26
2019-02-11T17:48:41.821Z,100245.19
2019-02-11T17:51:09.521Z,100254.77
2019-02-11T17:53:37.169Z,100258.16
2019-02-11T17:56:04.826Z,100266.26
2019-02-11T17:58:32.465Z,100277.52
2019-02-11T18:01:01.111Z,100284.92
2019-02-11T18:03:28.754Z,100284.98
2019-02-11T18:05:56.401Z,100297.81
2019-02-11T18:08:24.069Z,100312.77
2019-02-11T18:10:51.721Z,100319.56
2019-02-11T18:13:19.358Z,100321.89
2019-02-11T18:15:47.027Z,100328.52
2019-02-11T18:18:14.741Z,100316.64
2019-02-11T18:20:42.376Z,100326.31
2019-02-11T18:23:10.050Z,100336.36
2019-02-11T18:25:37.695Z,100338.81
2019-02-11T18:28:05.358Z,100355.71
2019-02-11T18:30:32.999Z,100345.61
2019-02-11T18:33:00.658Z,100346.63
2019-02-11T18:35:28.301Z,100340.62
2019-02-11T18:37:55.958Z,100356.88
2019-02-11T18:40:23.607Z,100368.22
2019-02-11T18:42:51.282Z,100366.34
2019-02-11T18:45:19.009Z,100372.14
2019-02-11T18:47:46.675Z,100367.14
2019-02-11T18:50:14.327Z,100373.24
2019-02-11T18:52:41.965Z,100377.03
2019-02-11T18:55:09.625Z,100382.80
2019-02-11T18:57:37.280Z,100380.47
2019-02-11T19:00:04.924Z,100390.42
2019-02-11T19:02:32.572Z,100398.76
2019-02-11T19:05:00.232Z,100397.09
2019-02-11T19:07:27.859Z,100408.98
2019-02-11T19:09:55.539Z,100419.22
2019-02-11T19:12:23.171Z,100421.95
2019-02-11T19:14:50.833Z,100424.13
2019-02-11T19:17:18.486Z,100434.16
2019-02-11T19:19:46.141Z,100434.06
2019-02-11T19:22:13.786Z,100439.56
2019-02-11T19:24:41.428Z,100444.33
2019-02-11T19:27:09.091Z,100452.08
2019-02-11T19:29:36.737Z,100465.39
2019-02-11T19:32:04.384Z,100460.06
2019-02-11T19:34:32.042Z,100467.52
2019-02-11T19:36:59.690Z,100472.56
2019-02-11T19:39:27.342Z,100484.20
2019-02-11T19:41:55.001Z,100488.97
2019-02-11T19:44:22.655Z,100495.53
2019-02-11T19:46:50.301Z,100500.30
2019-02-11T19:49:17.966Z,100513.75
2019-02-11T19:51:45.606Z,100514.35
2019-02-11T19:54:13.268Z,100525.52
2019-02-11T19:56:40.909Z,100524.34
2019-02-11T19:59:08.574Z,100525.30
2019-02-11T20:01:36.221Z,100525.80
2019-02-11T20:04:07.575Z,100534.64
2019-02-11T20:06:33.281Z,100545.39
2019-02-11T20:09:00.967Z,100539.60
2019-02-11T20:11:28.624Z,100553.45
2019-02-11T20:13:56.291Z,100548.66
2019-02-11T20:16:23.932Z,100558.36
2019-02-11T20:18:51.582Z,100558.59
2019-02-11T20:21:19.229Z,100564.91
2019-02-11T20:23:47.011Z,100568.83
2019-02-11T20:26:14.809Z,100568.55
2019-02-11T20:28:42.460Z,100581.02
2019-02-11T20:31:10.098Z,100579.56
2019-02-11T20:33:37.750Z,100591.56
2019-02-11T20:36:05.400Z,100591.67
2019-02-11T20:38:33.060Z,100583.30
2019-02-11T20:41:00.700Z,100583.20
2019-02-11T20:43:28.348Z,100593.43
2019-02-11T20:45:56.021Z,100597.66
2019-02-11T20:48:23.665Z,100592.05
2019-02-11T20:50:51.313Z,100607.20
2019-02-11T20:53:18.994Z,100613.00
2019-02-11T20:55:46.645Z,100614.06
2019-02-11T20:58:14.288Z,100616.20
2019-02-11T21:00:41.938Z,100625.17
2019-02-11T21:03:09.656Z,100627.41
2019-02-11T21:05:37.293Z,100628.81
2019-02-11T21:08:04.948Z,100629.09
2019-02-11T21:10:32.601Z,100633.58
2019-02-11T21:13:00.252Z,100642.83
2019-02-11T21:15:27.913Z,100646.55
2019-02-11T21:17:55.568Z,100658.81
2019-02-11T21:20:23.226Z,100665.20
2019-02-11T21:22:50.874Z,100660.59
2019-02-11T21:25:18.523Z,100667.75
2019-02-11T21:27:46.171Z,100667.24
2019-02-11T21:30:13.825Z,100677.27
2019-02-11T21:32:41.476Z,100683.06
2019-02-11T21:35:09.127Z,100679.24
2019-02-11T21:37:36.769Z,100686.90
2019-02-11T21:40:04.429Z,100682.57
2019-02-11T21:42:32.079Z,100681.28
2019-02-11T21:44:59.722Z,100683.91
2019-02-11T21:47:27.382Z,100686.85
2019-02-11T21:49:55.040Z,100701.59
2019-02-11T21:52:22.673Z,100704.13
2019-02-11T21:54:50.325Z,100711.55
2019-02-11T21:57:17.981Z,100712.19
2019-02-11T21:59:45.621Z,100714.02
2019-02-11T22:02:13.262Z,100732.14
2019-02-11T22:04:40.913Z,100723.41
2019-02-11T22:07:08.552Z,100717.39
2019-02-11T22:09:36.214Z,100714.98
2019-02-11T22:12:03.876Z,100719.14
2019-02-11T22:14:31.519Z,100728.73
2019-02-11T22:16:59.179Z,100721.41
2019-02-11T22:19:26.826Z,100722.36
2019-02-11T22:21:54.476Z,100717.34
2019-02-11T22:24:22.113Z,100730.28
2019-02-11T22:26:49.772Z,100728.27
2019-02-11T22:29:17.420Z,100738.30
2019-02-11T22:31:45.069Z,100733.88
2019-02-11T22:34:12.719Z,100746.03
2019-02-11T22:36:40.369Z,100755.62
2019-02-11T22:39:08.025Z,100754.37
2019-02-11T22:41:35.688Z,100750.39
2019-02-11T22:44:03.370Z,100742.77
2019-02-11T22:46:31.079Z,100760.50
2019-02-11T22:48:58.717Z,100758.91
2019-02-11T22:51:26.369Z,100764.83
2019-02-11T22:53:54.016Z,100769.31
2019-02-11T22:56:21.664Z,100775.03
2019-02-11T22:58:49.327Z,100783.80
2019-02-11T23:01:17.167Z,100785.36
2019-02-11T23:03:44.805Z,100786.62
2019-02-11T23:06:12.454Z,100790.14
2019-02-11T23:08:40.102Z,100794.59
2019-02-11T23:11:07.749Z,100796.97
2019-02-11T23:13:35.403Z,100796.64
2019-02-11T23:16:03.060Z,100793.74
2019-02-11T23:18:30.702Z,100805.52
2019-02-11T23:20:58.354Z,100806.29
2019-02-11T23:23:25.992Z,100807.89
2019-02-11T23:25:53.646Z,100804.62
2019-02-11T23:28:21.300Z,100809.17
2019-02-11T23:30:48.944Z,100814.22
2019-02-11T23:33:16.603Z,100812.09
2019-02-11T23:35:44.262Z,100813.13
2019-02-11T23:38:11.906Z,100823.92
2019-02-11T23:40:39.557Z,100830.96
2019-02-11T23:43:07.207Z,100834.97
2019-02-11T23:45:34.858Z,100831.08
2019-02-11T23:48:03.721Z,100837.34
2019-02-11T23:50:31.647Z,100835.17
2019-02-11T23:52:59.291Z,100835.31
2019-02-11T23:55:26.944Z,100833.36
2019-02-11T23:57:54.592Z,100845.92
